sensor_id;sensor_type;location;lat;lon;timestamp;P1;durP1;ratioP1;P2;durP2;ratioP2
57303;SDS011;43150;50.986;18.208;2023-02-28T00:01:07;10.50;;;6.50;;
57303;SDS011;43150;50.986;18.208;2023-02-28T00:03:33;12.80;;;6.40;;
57303;SDS011;43150;50.986;18.208;2023-02-28T00:06:03;11.50;;;7.00;;
57303;SDS011;43150;50.986;18.208;2023-02-28T00:08:29;9.90;;;6.20;;
57303;SDS011;43150;50.986;18.208;2023-02-28T00:10:55;11.40;;;6.60;;
57303;SDS011;43150;50.986;18.208;2023-02-28T00:13:21;14.80;;;7.40;;
57303;SDS011;43150;50.986;18.208;2023-02-28T00:15:46;12.10;;;7.10;;
57303;SDS011;43150;50.986;18.208;2023-02-28T00:18:12;9.50;;;5.70;;
57303;SDS011;43150;50.986;18.208;2023-02-28T00:20:38;12.10;;;6.60;;
57303;SDS011;43150;50.986;18.208;2023-02-28T00:23:04;7.10;;;3.40;;
57303;SDS011;43150;50.986;18.208;2023-02-28T00:25:30;10.20;;;5.80;;
57303;SDS011;43150;50.986;18.208;2023-02-28T00:27:55;11.40;;;7.50;;
57303;SDS011;43150;50.986;18.208;2023-02-28T00:30:21;11.50;;;7.70;;
57303;SDS011;43150;50.986;18.208;2023-02-28T00:32:48;14.20;;;8.20;;
57303;SDS011;43150;50.986;18.208;2023-02-28T00:35:14;10.80;;;6.60;;
57303;SDS011;43150;50.986;18.208;2023-02-28T00:37:40;8.70;;;5.20;;
57303;SDS011;43150;50.986;18.208;2023-02-28T00:40:08;7.70;;;4.90;;
57303;SDS011;43150;50.986;18.208;2023-02-28T00:42:35;9.50;;;5.00;;
57303;SDS011;43150;50.986;18.208;2023-02-28T00:45:00;10.40;;;6.00;;
57303;SDS011;43150;50.986;18.208;2023-02-28T00:47:26;10.50;;;7.10;;
57303;SDS011;43150;50.986;18.208;2023-02-28T00:49:52;11.90;;;7.60;;
57303;SDS011;43150;50.986;18.208;2023-02-28T00:52:18;10.80;;;7.00;;
57303;SDS011;43150;50.986;18.208;2023-02-28T00:54:43;11.60;;;6.60;;
57303;SDS011;43150;50.986;18.208;2023-02-28T00:57:09;15.10;;;8.40;;
57303;SDS011;43150;50.986;18.208;2023-02-28T00:59:35;14.00;;;8.70;;
57303;SDS011;43150;50.986;18.208;2023-02-28T01:02:00;11.80;;;7.90;;
57303;SDS011;43150;50.986;18.208;2023-02-28T01:04:26;12.80;;;8.30;;
57303;SDS011;43150;50.986;18.208;2023-02-28T01:06:51;13.50;;;8.70;;
57303;SDS011;43150;50.986;18.208;2023-02-28T01:09:17;13.40;;;7.60;;
57303;SDS011;43150;50.986;18.208;2023-02-28T01:11:42;13.10;;;8.70;;
57303;SDS011;43150;50.986;18.208;2023-02-28T01:14:13;12.50;;;7.90;;
57303;SDS011;43150;50.986;18.208;2023-02-28T01:16:39;11.90;;;7.70;;
57303;SDS011;43150;50.986;18.208;2023-02-28T01:19:05;10.00;;;7.10;;
57303;SDS011;43150;50.986;18.208;2023-02-28T01:21:31;12.80;;;8.00;;
57303;SDS011;43150;50.986;18.208;2023-02-28T01:23:57;12.20;;;8.10;;
57303;SDS011;43150;50.986;18.208;2023-02-28T01:26:23;12.90;;;7.60;;
57303;SDS011;43150;50.986;18.208;2023-02-28T01:28:50;16.50;;;8.60;;
57303;SDS011;43150;50.986;18.208;2023-02-28T01:31:17;12.30;;;8.00;;
57303;SDS011;43150;50.986;18.208;2023-02-28T01:33:43;11.70;;;8.00;;
57303;SDS011;43150;50.986;18.208;2023-02-28T01:36:11;13.30;;;7.20;;
57303;SDS011;43150;50.986;18.208;2023-02-28T01:38:37;14.50;;;7.90;;
57303;SDS011;43150;50.986;18.208;2023-02-28T01:41:03;12.60;;;8.90;;
57303;SDS011;43150;50.986;18.208;2023-02-28T01:46:15;17.50;;;8.30;;
57303;SDS011;43150;50.986;18.208;2023-02-28T01:48:44;13.80;;;7.70;;
57303;SDS011;43150;50.986;18.208;2023-02-28T01:51:15;12.00;;;7.30;;
57303;SDS011;43150;50.986;18.208;2023-02-28T01:53:49;13.80;;;8.10;;
57303;SDS011;43150;50.986;18.208;2023-02-28T01:56:17;15.50;;;8.10;;
57303;SDS011;43150;50.986;18.208;2023-02-28T01:58:51;14.30;;;9.10;;
57303;SDS011;43150;50.986;18.208;2023-02-28T02:01:17;16.50;;;9.40;;
57303;SDS011;43150;50.986;18.208;2023-02-28T02:03:59;14.10;;;8.60;;
57303;SDS011;43150;50.986;18.208;2023-02-28T02:06:39;13.60;;;8.60;;
57303;SDS011;43150;50.986;18.208;2023-02-28T02:09:08;12.80;;;8.70;;
57303;SDS011;43150;50.986;18.208;2023-02-28T02:11:34;12.80;;;8.30;;
57303;SDS011;43150;50.986;18.208;2023-02-28T02:27:20;14.90;;;9.90;;
57303;SDS011;43150;50.986;18.208;2023-02-28T02:35:01;13.40;;;9.50;;
57303;SDS011;43150;50.986;18.208;2023-02-28T02:42:28;15.20;;;10.20;;
57303;SDS011;43150;50.986;18.208;2023-02-28T02:47:23;40.40;;;16.60;;
57303;SDS011;43150;50.986;18.208;2023-02-28T02:49:51;17.00;;;10.90;;
57303;SDS011;43150;50.986;18.208;2023-02-28T02:52:18;119.60;;;33.60;;
57303;SDS011;43150;50.986;18.208;2023-02-28T02:54:47;15.90;;;9.80;;
57303;SDS011;43150;50.986;18.208;2023-02-28T02:57:15;12.90;;;9.40;;
57303;SDS011;43150;50.986;18.208;2023-02-28T02:59:42;11.40;;;7.80;;
57303;SDS011;43150;50.986;18.208;2023-02-28T03:02:10;12.90;;;9.40;;
57303;SDS011;43150;50.986;18.208;2023-02-28T03:04:47;12.70;;;7.50;;
57303;SDS011;43150;50.986;18.208;2023-02-28T03:07:14;12.50;;;7.80;;
57303;SDS011;43150;50.986;18.208;2023-02-28T03:09:40;13.40;;;8.10;;
57303;SDS011;43150;50.986;18.208;2023-02-28T03:12:09;15.70;;;8.70;;
57303;SDS011;43150;50.986;18.208;2023-02-28T03:20:05;19.00;;;9.40;;
57303;SDS011;43150;50.986;18.208;2023-02-28T03:25:37;17.70;;;10.70;;
57303;SDS011;43150;50.986;18.208;2023-02-28T03:33:29;18.80;;;11.50;;
57303;SDS011;43150;50.986;18.208;2023-02-28T03:36:09;20.70;;;10.90;;
57303;SDS011;43150;50.986;18.208;2023-02-28T03:38:38;20.80;;;11.30;;
57303;SDS011;43150;50.986;18.208;2023-02-28T03:41:06;20.60;;;10.90;;
57303;SDS011;43150;50.986;18.208;2023-02-28T03:43:41;21.00;;;12.10;;
57303;SDS011;43150;50.986;18.208;2023-02-28T03:46:09;19.60;;;10.20;;
57303;SDS011;43150;50.986;18.208;2023-02-28T03:48:40;15.60;;;9.60;;
57303;SDS011;43150;50.986;18.208;2023-02-28T03:51:06;19.70;;;10.10;;
57303;SDS011;43150;50.986;18.208;2023-02-28T03:53:35;22.70;;;14.60;;
57303;SDS011;43150;50.986;18.208;2023-02-28T04:01:08;21.90;;;11.50;;
57303;SDS011;43150;50.986;18.208;2023-02-28T04:03:36;17.50;;;10.40;;
57303;SDS011;43150;50.986;18.208;2023-02-28T04:06:02;13.60;;;8.00;;
57303;SDS011;43150;50.986;18.208;2023-02-28T04:08:27;17.40;;;9.70;;
57303;SDS011;43150;50.986;18.208;2023-02-28T04:10:55;15.80;;;9.30;;
57303;SDS011;43150;50.986;18.208;2023-02-28T04:13:23;18.90;;;10.90;;
57303;SDS011;43150;50.986;18.208;2023-02-28T04:15:48;17.20;;;11.20;;
57303;SDS011;43150;50.986;18.208;2023-02-28T04:18:14;20.60;;;11.20;;
57303;SDS011;43150;50.986;18.208;2023-02-28T04:20:40;16.70;;;10.70;;
57303;SDS011;43150;50.986;18.208;2023-02-28T04:23:05;15.20;;;9.60;;
57303;SDS011;43150;50.986;18.208;2023-02-28T04:25:31;18.70;;;11.80;;
57303;SDS011;43150;50.986;18.208;2023-02-28T04:27:56;17.80;;;10.80;;
57303;SDS011;43150;50.986;18.208;2023-02-28T04:30:22;22.90;;;12.30;;
57303;SDS011;43150;50.986;18.208;2023-02-28T04:32:47;21.10;;;12.50;;
57303;SDS011;43150;50.986;18.208;2023-02-28T04:35:13;21.10;;;12.30;;
57303;SDS011;43150;50.986;18.208;2023-02-28T04:37:38;20.50;;;12.10;;
57303;SDS011;43150;50.986;18.208;2023-02-28T04:40:04;19.30;;;11.70;;
57303;SDS011;43150;50.986;18.208;2023-02-28T04:42:30;19.50;;;11.80;;
57303;SDS011;43150;50.986;18.208;2023-02-28T04:45:04;22.00;;;12.40;;
57303;SDS011;43150;50.986;18.208;2023-02-28T04:47:30;18.80;;;11.50;;
57303;SDS011;43150;50.986;18.208;2023-02-28T04:49:55;19.60;;;11.80;;
57303;SDS011;43150;50.986;18.208;2023-02-28T04:52:21;18.10;;;11.90;;
57303;SDS011;43150;50.986;18.208;2023-02-28T04:54:47;20.20;;;11.00;;
57303;SDS011;43150;50.986;18.208;2023-02-28T04:57:12;19.00;;;11.30;;
57303;SDS011;43150;50.986;18.208;2023-02-28T04:59:38;19.40;;;12.20;;
57303;SDS011;43150;50.986;18.208;2023-02-28T05:02:04;21.40;;;13.20;;
57303;SDS011;43150;50.986;18.208;2023-02-28T05:04:32;21.00;;;12.30;;
57303;SDS011;43150;50.986;18.208;2023-02-28T05:06:59;21.90;;;11.90;;
57303;SDS011;43150;50.986;18.208;2023-02-28T05:09:25;20.60;;;12.10;;
57303;SDS011;43150;50.986;18.208;2023-02-28T05:11:55;21.70;;;12.50;;
57303;SDS011;43150;50.986;18.208;2023-02-28T05:14:21;22.10;;;12.50;;
57303;SDS011;43150;50.986;18.208;2023-02-28T05:16:46;22.30;;;12.80;;
57303;SDS011;43150;50.986;18.208;2023-02-28T05:19:12;23.60;;;12.40;;
57303;SDS011;43150;50.986;18.208;2023-02-28T05:21:39;22.70;;;13.30;;
57303;SDS011;43150;50.986;18.208;2023-02-28T05:24:11;24.90;;;13.60;;
57303;SDS011;43150;50.986;18.208;2023-02-28T05:29:04;39.80;;;15.60;;
57303;SDS011;43150;50.986;18.208;2023-02-28T05:31:30;28.00;;;15.20;;
57303;SDS011;43150;50.986;18.208;2023-02-28T05:33:56;25.70;;;13.90;;
57303;SDS011;43150;50.986;18.208;2023-02-28T05:36:21;27.20;;;14.70;;
57303;SDS011;43150;50.986;18.208;2023-02-28T05:38:47;25.80;;;13.90;;
57303;SDS011;43150;50.986;18.208;2023-02-28T05:41:14;26.10;;;15.20;;
57303;SDS011;43150;50.986;18.208;2023-02-28T05:43:40;30.80;;;16.00;;
57303;SDS011;43150;50.986;18.208;2023-02-28T05:46:06;27.80;;;14.90;;
57303;SDS011;43150;50.986;18.208;2023-02-28T05:48:33;28.50;;;15.10;;
57303;SDS011;43150;50.986;18.208;2023-02-28T05:50:58;33.60;;;16.20;;
57303;SDS011;43150;50.986;18.208;2023-02-28T05:53:24;27.40;;;16.00;;
57303;SDS011;43150;50.986;18.208;2023-02-28T05:55:50;31.70;;;16.80;;
57303;SDS011;43150;50.986;18.208;2023-02-28T05:58:15;45.70;;;25.10;;
57303;SDS011;43150;50.986;18.208;2023-02-28T06:00:42;42.40;;;20.60;;
57303;SDS011;43150;50.986;18.208;2023-02-28T06:03:08;34.90;;;18.00;;
57303;SDS011;43150;50.986;18.208;2023-02-28T06:05:33;38.30;;;18.50;;
57303;SDS011;43150;50.986;18.208;2023-02-28T06:07:58;41.00;;;20.20;;
57303;SDS011;43150;50.986;18.208;2023-02-28T06:10:24;39.10;;;19.50;;
57303;SDS011;43150;50.986;18.208;2023-02-28T06:12:50;36.20;;;17.80;;
57303;SDS011;43150;50.986;18.208;2023-02-28T06:15:15;36.20;;;17.40;;
57303;SDS011;43150;50.986;18.208;2023-02-28T06:17:42;32.70;;;18.00;;
57303;SDS011;43150;50.986;18.208;2023-02-28T06:20:11;25.70;;;14.00;;
57303;SDS011;43150;50.986;18.208;2023-02-28T06:22:38;32.20;;;18.00;;
57303;SDS011;43150;50.986;18.208;2023-02-28T06:25:05;34.10;;;17.10;;
57303;SDS011;43150;50.986;18.208;2023-02-28T06:27:32;28.60;;;17.90;;
57303;SDS011;43150;50.986;18.208;2023-02-28T06:29:58;22.40;;;14.00;;
57303;SDS011;43150;50.986;18.208;2023-02-28T06:32:24;23.50;;;13.10;;
57303;SDS011;43150;50.986;18.208;2023-02-28T06:34:49;26.50;;;14.60;;
57303;SDS011;43150;50.986;18.208;2023-02-28T06:37:16;38.50;;;19.00;;
57303;SDS011;43150;50.986;18.208;2023-02-28T06:39:43;41.30;;;21.60;;
57303;SDS011;43150;50.986;18.208;2023-02-28T06:42:15;46.00;;;24.90;;
57303;SDS011;43150;50.986;18.208;2023-02-28T06:44:40;32.40;;;23.60;;
57303;SDS011;43150;50.986;18.208;2023-02-28T06:47:08;29.60;;;22.80;;
57303;SDS011;43150;50.986;18.208;2023-02-28T06:49:39;26.10;;;21.30;;
57303;SDS011;43150;50.986;18.208;2023-02-28T06:52:04;26.20;;;23.10;;
57303;SDS011;43150;50.986;18.208;2023-02-28T06:54:30;19.30;;;17.30;;
57303;SDS011;43150;50.986;18.208;2023-02-28T06:56:57;18.20;;;16.30;;
57303;SDS011;43150;50.986;18.208;2023-02-28T06:59:23;14.40;;;12.90;;
57303;SDS011;43150;50.986;18.208;2023-02-28T07:01:49;16.00;;;14.40;;
57303;SDS011;43150;50.986;18.208;2023-02-28T07:04:14;14.90;;;13.40;;
57303;SDS011;43150;50.986;18.208;2023-02-28T07:06:40;15.50;;;13.50;;
57303;SDS011;43150;50.986;18.208;2023-02-28T07:09:05;12.40;;;11.20;;
57303;SDS011;43150;50.986;18.208;2023-02-28T07:11:31;10.90;;;9.70;;
57303;SDS011;43150;50.986;18.208;2023-02-28T07:13:57;10.30;;;9.20;;
57303;SDS011;43150;50.986;18.208;2023-02-28T07:16:24;11.70;;;10.40;;
57303;SDS011;43150;50.986;18.208;2023-02-28T07:18:54;22.70;;;19.80;;
57303;SDS011;43150;50.986;18.208;2023-02-28T07:21:20;23.30;;;20.90;;
57303;SDS011;43150;50.986;18.208;2023-02-28T07:23:46;20.70;;;18.30;;
57303;SDS011;43150;50.986;18.208;2023-02-28T07:26:13;19.30;;;17.30;;
57303;SDS011;43150;50.986;18.208;2023-02-28T07:28:43;19.50;;;16.60;;
57303;SDS011;43150;50.986;18.208;2023-02-28T07:31:09;21.00;;;17.70;;
57303;SDS011;43150;50.986;18.208;2023-02-28T07:33:36;19.60;;;17.50;;
57303;SDS011;43150;50.986;18.208;2023-02-28T07:36:09;20.20;;;18.10;;
57303;SDS011;43150;50.986;18.208;2023-02-28T07:38:41;22.20;;;19.80;;
57303;SDS011;43150;50.986;18.208;2023-02-28T07:41:07;23.60;;;19.50;;
57303;SDS011;43150;50.986;18.208;2023-02-28T07:43:33;22.00;;;19.40;;
57303;SDS011;43150;50.986;18.208;2023-02-28T07:46:03;22.50;;;18.10;;
57303;SDS011;43150;50.986;18.208;2023-02-28T07:48:29;24.10;;;19.70;;
57303;SDS011;43150;50.986;18.208;2023-02-28T07:50:55;20.20;;;17.20;;
57303;SDS011;43150;50.986;18.208;2023-02-28T07:53:24;21.70;;;17.00;;
57303;SDS011;43150;50.986;18.208;2023-02-28T07:55:50;17.10;;;14.10;;
57303;SDS011;43150;50.986;18.208;2023-02-28T07:58:16;18.80;;;14.10;;
57303;SDS011;43150;50.986;18.208;2023-02-28T08:00:49;16.60;;;13.40;;
57303;SDS011;43150;50.986;18.208;2023-02-28T08:03:15;15.90;;;12.20;;
57303;SDS011;43150;50.986;18.208;2023-02-28T08:05:41;13.80;;;10.90;;
57303;SDS011;43150;50.986;18.208;2023-02-28T08:08:07;12.50;;;10.30;;
57303;SDS011;43150;50.986;18.208;2023-02-28T08:10:33;12.20;;;10.30;;
57303;SDS011;43150;50.986;18.208;2023-02-28T08:12:59;13.70;;;11.00;;
57303;SDS011;43150;50.986;18.208;2023-02-28T08:15:25;10.40;;;7.90;;
57303;SDS011;43150;50.986;18.208;2023-02-28T08:17:50;11.30;;;7.70;;
57303;SDS011;43150;50.986;18.208;2023-02-28T08:20:16;11.10;;;8.10;;
57303;SDS011;43150;50.986;18.208;2023-02-28T08:22:42;7.70;;;6.40;;
57303;SDS011;43150;50.986;18.208;2023-02-28T08:25:09;9.60;;;6.80;;
57303;SDS011;43150;50.986;18.208;2023-02-28T08:27:41;7.20;;;6.30;;
57303;SDS011;43150;50.986;18.208;2023-02-28T08:30:09;12.70;;;6.60;;
57303;SDS011;43150;50.986;18.208;2023-02-28T08:32:35;8.00;;;6.10;;
57303;SDS011;43150;50.986;18.208;2023-02-28T08:35:01;7.00;;;5.60;;
57303;SDS011;43150;50.986;18.208;2023-02-28T08:37:28;6.20;;;5.20;;
57303;SDS011;43150;50.986;18.208;2023-02-28T08:39:54;5.60;;;4.80;;
57303;SDS011;43150;50.986;18.208;2023-02-28T08:42:19;5.90;;;4.70;;
57303;SDS011;43150;50.986;18.208;2023-02-28T08:44:49;6.70;;;4.70;;
57303;SDS011;43150;50.986;18.208;2023-02-28T08:47:14;8.40;;;5.00;;
57303;SDS011;43150;50.986;18.208;2023-02-28T08:49:40;6.80;;;4.70;;
57303;SDS011;43150;50.986;18.208;2023-02-28T08:52:08;6.50;;;4.80;;
57303;SDS011;43150;50.986;18.208;2023-02-28T08:54:34;6.30;;;5.30;;
57303;SDS011;43150;50.986;18.208;2023-02-28T08:57:00;6.10;;;5.30;;
57303;SDS011;43150;50.986;18.208;2023-02-28T08:59:25;7.20;;;5.40;;
57303;SDS011;43150;50.986;18.208;2023-02-28T09:01:51;7.80;;;5.20;;
57303;SDS011;43150;50.986;18.208;2023-02-28T09:04:17;7.30;;;4.90;;
57303;SDS011;43150;50.986;18.208;2023-02-28T09:06:42;7.00;;;6.30;;
57303;SDS011;43150;50.986;18.208;2023-02-28T09:09:10;7.70;;;5.70;;
57303;SDS011;43150;50.986;18.208;2023-02-28T09:11:36;8.40;;;5.80;;
57303;SDS011;43150;50.986;18.208;2023-02-28T09:14:01;7.20;;;5.40;;
57303;SDS011;43150;50.986;18.208;2023-02-28T09:16:29;5.90;;;5.30;;
57303;SDS011;43150;50.986;18.208;2023-02-28T09:18:56;5.90;;;5.30;;
57303;SDS011;43150;50.986;18.208;2023-02-28T09:21:21;5.90;;;5.00;;
57303;SDS011;43150;50.986;18.208;2023-02-28T09:23:48;6.70;;;5.60;;
57303;SDS011;43150;50.986;18.208;2023-02-28T09:26:15;6.00;;;5.00;;
57303;SDS011;43150;50.986;18.208;2023-02-28T09:28:41;5.10;;;4.60;;
57303;SDS011;43150;50.986;18.208;2023-02-28T09:31:10;8.00;;;5.40;;
57303;SDS011;43150;50.986;18.208;2023-02-28T09:33:37;7.20;;;5.60;;
57303;SDS011;43150;50.986;18.208;2023-02-28T09:36:02;6.90;;;5.10;;
57303;SDS011;43150;50.986;18.208;2023-02-28T09:38:29;6.70;;;5.80;;
57303;SDS011;43150;50.986;18.208;2023-02-28T09:40:55;6.20;;;5.20;;
57303;SDS011;43150;50.986;18.208;2023-02-28T09:43:22;6.30;;;5.70;;
57303;SDS011;43150;50.986;18.208;2023-02-28T09:45:56;8.20;;;6.00;;
57303;SDS011;43150;50.986;18.208;2023-02-28T09:48:33;6.90;;;5.30;;
57303;SDS011;43150;50.986;18.208;2023-02-28T09:51:12;6.50;;;5.80;;
57303;SDS011;43150;50.986;18.208;2023-02-28T09:53:41;8.00;;;5.80;;
57303;SDS011;43150;50.986;18.208;2023-02-28T09:56:11;6.30;;;5.10;;
57303;SDS011;43150;50.986;18.208;2023-02-28T09:58:45;7.10;;;5.50;;
57303;SDS011;43150;50.986;18.208;2023-02-28T10:01:17;5.90;;;5.30;;
57303;SDS011;43150;50.986;18.208;2023-02-28T10:04:08;7.20;;;5.90;;
57303;SDS011;43150;50.986;18.208;2023-02-28T10:06:36;7.00;;;6.30;;
57303;SDS011;43150;50.986;18.208;2023-02-28T10:09:06;7.00;;;6.30;;
57303;SDS011;43150;50.986;18.208;2023-02-28T10:11:39;7.70;;;6.90;;
57303;SDS011;43150;50.986;18.208;2023-02-28T10:14:19;8.80;;;6.60;;
57303;SDS011;43150;50.986;18.208;2023-02-28T10:16:46;7.50;;;6.70;;
57303;SDS011;43150;50.986;18.208;2023-02-28T10:19:28;10.70;;;7.20;;
57303;SDS011;43150;50.986;18.208;2023-02-28T10:27:00;7.10;;;6.40;;
57303;SDS011;43150;50.986;18.208;2023-02-28T10:29:27;7.70;;;6.50;;
57303;SDS011;43150;50.986;18.208;2023-02-28T10:31:58;9.10;;;7.00;;
57303;SDS011;43150;50.986;18.208;2023-02-28T10:34:26;13.30;;;10.20;;
57303;SDS011;43150;50.986;18.208;2023-02-28T10:36:51;8.90;;;7.10;;
57303;SDS011;43150;50.986;18.208;2023-02-28T10:42:02;9.20;;;7.20;;
57303;SDS011;43150;50.986;18.208;2023-02-28T10:44:28;8.00;;;7.20;;
57303;SDS011;43150;50.986;18.208;2023-02-28T10:46:53;7.70;;;6.60;;
57303;SDS011;43150;50.986;18.208;2023-02-28T10:49:26;7.60;;;6.90;;
57303;SDS011;43150;50.986;18.208;2023-02-28T10:51:53;7.90;;;7.00;;
57303;SDS011;43150;50.986;18.208;2023-02-28T10:54:24;8.60;;;6.70;;
57303;SDS011;43150;50.986;18.208;2023-02-28T10:59:36;8.60;;;7.80;;
57303;SDS011;43150;50.986;18.208;2023-02-28T11:02:01;7.90;;;7.10;;
57303;SDS011;43150;50.986;18.208;2023-02-28T11:07:05;8.60;;;7.70;;
57303;SDS011;43150;50.986;18.208;2023-02-28T11:09:35;7.70;;;7.00;;
57303;SDS011;43150;50.986;18.208;2023-02-28T11:12:02;8.10;;;7.00;;
57303;SDS011;43150;50.986;18.208;2023-02-28T11:14:34;8.80;;;7.80;;
57303;SDS011;43150;50.986;18.208;2023-02-28T11:20:06;9.60;;;7.30;;
57303;SDS011;43150;50.986;18.208;2023-02-28T11:22:37;8.80;;;7.60;;
57303;SDS011;43150;50.986;18.208;2023-02-28T11:25:07;8.40;;;7.40;;
57303;SDS011;43150;50.986;18.208;2023-02-28T11:27:52;7.60;;;6.80;;
57303;SDS011;43150;50.986;18.208;2023-02-28T11:30:32;7.70;;;7.00;;
57303;SDS011;43150;50.986;18.208;2023-02-28T11:32:59;13.00;;;8.40;;
57303;SDS011;43150;50.986;18.208;2023-02-28T11:35:27;8.30;;;7.60;;
57303;SDS011;43150;50.986;18.208;2023-02-28T11:37:54;8.70;;;7.80;;
57303;SDS011;43150;50.986;18.208;2023-02-28T11:40:26;8.30;;;7.50;;
57303;SDS011;43150;50.986;18.208;2023-02-28T11:45:22;13.00;;;7.50;;
57303;SDS011;43150;50.986;18.208;2023-02-28T11:50:38;8.50;;;7.60;;
57303;SDS011;43150;50.986;18.208;2023-02-28T11:53:10;8.60;;;7.70;;
57303;SDS011;43150;50.986;18.208;2023-02-28T11:55:46;9.40;;;8.10;;
57303;SDS011;43150;50.986;18.208;2023-02-28T12:05:46;9.00;;;8.20;;
57303;SDS011;43150;50.986;18.208;2023-02-28T12:10:59;11.50;;;8.60;;
57303;SDS011;43150;50.986;18.208;2023-02-28T12:34:34;13.00;;;11.70;;
57303;SDS011;43150;50.986;18.208;2023-02-28T12:37:03;9.80;;;5.90;;
57303;SDS011;43150;50.986;18.208;2023-02-28T12:39:31;10.90;;;6.20;;
57303;SDS011;43150;50.986;18.208;2023-02-28T12:42:13;11.80;;;6.60;;
57303;SDS011;43150;50.986;18.208;2023-02-28T12:44:44;8.30;;;5.90;;
57303;SDS011;43150;50.986;18.208;2023-02-28T12:47:15;13.00;;;8.30;;
57303;SDS011;43150;50.986;18.208;2023-02-28T12:52:07;11.10;;;6.30;;
57303;SDS011;43150;50.986;18.208;2023-02-28T13:00:03;11.20;;;6.90;;
57303;SDS011;43150;50.986;18.208;2023-02-28T13:04:57;11.80;;;10.70;;
57303;SDS011;43150;50.986;18.208;2023-02-28T13:09:59;10.60;;;9.50;;
57303;SDS011;43150;50.986;18.208;2023-02-28T13:12:25;9.70;;;8.60;;
57303;SDS011;43150;50.986;18.208;2023-02-28T13:15:01;12.90;;;10.10;;
57303;SDS011;43150;50.986;18.208;2023-02-28T13:17:29;10.10;;;9.00;;
57303;SDS011;43150;50.986;18.208;2023-02-28T13:24:55;9.60;;;8.60;;
57303;SDS011;43150;50.986;18.208;2023-02-28T13:27:22;10.50;;;9.50;;
57303;SDS011;43150;50.986;18.208;2023-02-28T13:29:49;11.40;;;9.90;;
57303;SDS011;43150;50.986;18.208;2023-02-28T13:47:30;10.40;;;9.40;;
57303;SDS011;43150;50.986;18.208;2023-02-28T13:53:02;13.40;;;11.10;;
57303;SDS011;43150;50.986;18.208;2023-02-28T13:55:37;11.30;;;10.20;;
57303;SDS011;43150;50.986;18.208;2023-02-28T14:00:58;11.80;;;10.60;;
57303;SDS011;43150;50.986;18.208;2023-02-28T14:06:26;12.10;;;10.60;;
57303;SDS011;43150;50.986;18.208;2023-02-28T14:08:54;11.90;;;10.70;;
57303;SDS011;43150;50.986;18.208;2023-02-28T14:11:25;12.60;;;10.80;;
57303;SDS011;43150;50.986;18.208;2023-02-28T14:13:50;12.70;;;11.40;;
57303;SDS011;43150;50.986;18.208;2023-02-28T14:16:17;12.20;;;11.00;;
57303;SDS011;43150;50.986;18.208;2023-02-28T14:18:58;13.20;;;11.80;;
57303;SDS011;43150;50.986;18.208;2023-02-28T14:34:55;12.50;;;11.30;;
57303;SDS011;43150;50.986;18.208;2023-02-28T14:37:29;13.40;;;12.20;;
57303;SDS011;43150;50.986;18.208;2023-02-28T14:39:56;13.70;;;12.30;;
57303;SDS011;43150;50.986;18.208;2023-02-28T14:42:32;13.20;;;11.80;;
57303;SDS011;43150;50.986;18.208;2023-02-28T14:44:58;13.20;;;11.70;;
57303;SDS011;43150;50.986;18.208;2023-02-28T14:47:26;13.10;;;11.80;;
57303;SDS011;43150;50.986;18.208;2023-02-28T14:49:53;12.70;;;11.40;;
57303;SDS011;43150;50.986;18.208;2023-02-28T14:52:29;14.10;;;12.80;;
57303;SDS011;43150;50.986;18.208;2023-02-28T14:54:57;14.50;;;13.10;;
57303;SDS011;43150;50.986;18.208;2023-02-28T14:57:33;15.00;;;13.60;;
57303;SDS011;43150;50.986;18.208;2023-02-28T15:02:30;15.60;;;13.90;;
57303;SDS011;43150;50.986;18.208;2023-02-28T15:05:01;15.40;;;13.90;;
57303;SDS011;43150;50.986;18.208;2023-02-28T15:07:27;17.10;;;14.70;;
57303;SDS011;43150;50.986;18.208;2023-02-28T15:12:40;17.60;;;14.80;;
57303;SDS011;43150;50.986;18.208;2023-02-28T15:15:06;18.40;;;16.70;;
57303;SDS011;43150;50.986;18.208;2023-02-28T15:17:33;18.70;;;16.80;;
57303;SDS011;43150;50.986;18.208;2023-02-28T15:19:59;51.40;;;14.00;;
57303;SDS011;43150;50.986;18.208;2023-02-28T15:22:27;12.90;;;8.40;;
57303;SDS011;43150;50.986;18.208;2023-02-28T15:24:54;9.70;;;5.90;;
57303;SDS011;43150;50.986;18.208;2023-02-28T15:27:25;13.90;;;9.60;;
57303;SDS011;43150;50.986;18.208;2023-02-28T15:30:34;21.40;;;16.40;;
57303;SDS011;43150;50.986;18.208;2023-02-28T15:32:41;13.50;;;9.50;;
57303;SDS011;43150;50.986;18.208;2023-02-28T15:37:55;19.50;;;12.90;;
57303;SDS011;43150;50.986;18.208;2023-02-28T15:40:31;18.70;;;10.90;;
57303;SDS011;43150;50.986;18.208;2023-02-28T15:43:18;20.10;;;12.10;;
57303;SDS011;43150;50.986;18.208;2023-02-28T15:46:01;16.20;;;9.90;;
57303;SDS011;43150;50.986;18.208;2023-02-28T15:48:29;18.50;;;11.40;;
57303;SDS011;43150;50.986;18.208;2023-02-28T15:53:56;21.40;;;13.10;;
57303;SDS011;43150;50.986;18.208;2023-02-28T15:56:29;14.40;;;8.10;;
57303;SDS011;43150;50.986;18.208;2023-02-28T15:58:59;23.10;;;12.50;;
57303;SDS011;43150;50.986;18.208;2023-02-28T16:01:27;23.30;;;13.50;;
57303;SDS011;43150;50.986;18.208;2023-02-28T16:06:33;21.30;;;12.70;;
57303;SDS011;43150;50.986;18.208;2023-02-28T16:09:00;17.40;;;8.80;;
57303;SDS011;43150;50.986;18.208;2023-02-28T16:11:25;22.30;;;11.20;;
57303;SDS011;43150;50.986;18.208;2023-02-28T16:13:51;23.70;;;14.20;;
57303;SDS011;43150;50.986;18.208;2023-02-28T16:16:21;22.80;;;10.40;;
57303;SDS011;43150;50.986;18.208;2023-02-28T16:18:47;29.40;;;15.50;;
57303;SDS011;43150;50.986;18.208;2023-02-28T16:21:13;43.10;;;23.30;;
57303;SDS011;43150;50.986;18.208;2023-02-28T16:23:39;37.70;;;18.50;;
57303;SDS011;43150;50.986;18.208;2023-02-28T16:26:05;36.10;;;18.40;;
57303;SDS011;43150;50.986;18.208;2023-02-28T16:28:31;33.60;;;16.90;;
57303;SDS011;43150;50.986;18.208;2023-02-28T16:30:59;30.70;;;15.80;;
57303;SDS011;43150;50.986;18.208;2023-02-28T16:33:25;17.30;;;9.70;;
57303;SDS011;43150;50.986;18.208;2023-02-28T16:35:51;28.60;;;14.20;;
57303;SDS011;43150;50.986;18.208;2023-02-28T16:38:17;25.50;;;13.80;;
57303;SDS011;43150;50.986;18.208;2023-02-28T16:40:43;23.90;;;13.20;;
57303;SDS011;43150;50.986;18.208;2023-02-28T16:43:15;19.20;;;10.40;;
57303;SDS011;43150;50.986;18.208;2023-02-28T16:45:44;19.30;;;9.70;;
57303;SDS011;43150;50.986;18.208;2023-02-28T16:48:12;17.60;;;8.70;;
57303;SDS011;43150;50.986;18.208;2023-02-28T16:50:38;21.90;;;10.40;;
57303;SDS011;43150;50.986;18.208;2023-02-28T16:53:04;20.20;;;10.50;;
57303;SDS011;43150;50.986;18.208;2023-02-28T16:55:29;20.50;;;11.40;;
57303;SDS011;43150;50.986;18.208;2023-02-28T16:57:58;22.40;;;12.70;;
57303;SDS011;43150;50.986;18.208;2023-02-28T17:00:25;24.30;;;12.70;;
57303;SDS011;43150;50.986;18.208;2023-02-28T17:02:51;24.30;;;12.50;;
57303;SDS011;43150;50.986;18.208;2023-02-28T17:05:17;18.90;;;10.60;;
57303;SDS011;43150;50.986;18.208;2023-02-28T17:07:45;24.40;;;12.30;;
57303;SDS011;43150;50.986;18.208;2023-02-28T17:10:17;23.10;;;12.00;;
57303;SDS011;43150;50.986;18.208;2023-02-28T17:12:46;21.40;;;10.40;;
57303;SDS011;43150;50.986;18.208;2023-02-28T17:15:12;20.00;;;10.30;;